sensor_id;sensor_type;location;lat;lon;timestamp;temperature;humidity
16767;DHT22;8501;49.926;8.404;2023-05-20T00:00:56;16.20;99.90
16767;DHT22;8501;49.926;8.404;2023-05-20T00:03:21;16.20;99.90
16767;DHT22;8501;49.926;8.404;2023-05-20T00:05:50;16.30;99.90
16767;DHT22;8501;49.926;8.404;2023-05-20T00:08:17;16.20;99.90
16767;DHT22;8501;49.926;8.404;2023-05-20T00:10:43;16.20;99.90
16767;DHT22;8501;49.926;8.404;2023-05-20T00:13:08;16.30;99.90
16767;DHT22;8501;49.926;8.404;2023-05-20T00:15:35;16.10;99.90
16767;DHT22;8501;49.926;8.404;2023-05-20T00:18:01;16.10;99.90
16767;DHT22;8501;49.926;8.404;2023-05-20T00:20:26;16.10;99.90
16767;DHT22;8501;49.926;8.404;2023-05-20T00:22:52;16.20;99.90
16767;DHT22;8501;49.926;8.404;2023-05-20T00:25:18;16.10;99.90
16767;DHT22;8501;49.926;8.404;2023-05-20T00:27:43;16.00;99.90
16767;DHT22;8501;49.926;8.404;2023-05-20T00:30:09;16.10;99.90
16767;DHT22;8501;49.926;8.404;2023-05-20T00:32:35;16.00;99.90
16767;DHT22;8501;49.926;8.404;2023-05-20T00:35:01;15.90;99.90
16767;DHT22;8501;49.926;8.404;2023-05-20T00:37:27;15.90;99.90
16767;DHT22;8501;49.926;8.404;2023-05-20T00:39:53;15.90;99.90
16767;DHT22;8501;49.926;8.404;2023-05-20T00:42:26;15.80;99.90
16767;DHT22;8501;49.926;8.404;2023-05-20T00:44:54;15.80;99.90
16767;DHT22;8501;49.926;8.404;2023-05-20T00:47:26;15.70;99.90
16767;DHT22;8501;49.926;8.404;2023-05-20T00:49:52;15.70;99.90
16767;DHT22;8501;49.926;8.404;2023-05-20T00:52:18;15.70;99.90
16767;DHT22;8501;49.926;8.404;2023-05-20T00:54:44;15.70;99.90
16767;DHT22;8501;49.926;8.404;2023-05-20T00:57:11;15.70;99.90
16767;DHT22;8501;49.926;8.404;2023-05-20T00:59:37;15.70;99.90
16767;DHT22;8501;49.926;8.404;2023-05-20T01:02:03;15.60;99.90
16767;DHT22;8501;49.926;8.404;2023-05-20T01:04:30;15.60;99.90
16767;DHT22;8501;49.926;8.404;2023-05-20T01:06:56;15.40;99.90
16767;DHT22;8501;49.926;8.404;2023-05-20T01:09:23;15.50;99.90
16767;DHT22;8501;49.926;8.404;2023-05-20T01:14:29;15.60;99.90
16767;DHT22;8501;49.926;8.404;2023-05-20T01:16:57;15.50;99.90
16767;DHT22;8501;49.926;8.404;2023-05-20T01:19:34;15.50;99.90
16767;DHT22;8501;49.926;8.404;2023-05-20T01:22:05;15.50;99.90
16767;DHT22;8501;49.926;8.404;2023-05-20T01:24:31;15.30;99.90
16767;DHT22;8501;49.926;8.404;2023-05-20T01:26:57;15.40;99.90
16767;DHT22;8501;49.926;8.404;2023-05-20T01:29:23;15.50;99.90
16767;DHT22;8501;49.926;8.404;2023-05-20T01:31:51;15.40;99.90
16767;DHT22;8501;49.926;8.404;2023-05-20T01:34:18;15.40;99.90
16767;DHT22;8501;49.926;8.404;2023-05-20T01:36:44;15.30;99.90
16767;DHT22;8501;49.926;8.404;2023-05-20T01:39:11;15.30;99.90
16767;DHT22;8501;49.926;8.404;2023-05-20T01:41:37;15.30;99.90
16767;DHT22;8501;49.926;8.404;2023-05-20T01:44:04;15.30;99.90
16767;DHT22;8501;49.926;8.404;2023-05-20T01:46:33;15.30;99.90
16767;DHT22;8501;49.926;8.404;2023-05-20T01:49:01;15.20;99.90
16767;DHT22;8501;49.926;8.404;2023-05-20T01:51:27;15.20;99.90
16767;DHT22;8501;49.926;8.404;2023-05-20T01:53:53;15.20;99.90
16767;DHT22;8501;49.926;8.404;2023-05-20T01:56:19;15.10;99.90
16767;DHT22;8501;49.926;8.404;2023-05-20T01:58:46;15.20;99.90
16767;DHT22;8501;49.926;8.404;2023-05-20T02:01:11;15.10;99.90
16767;DHT22;8501;49.926;8.404;2023-05-20T02:03:37;15.10;99.90
16767;DHT22;8501;49.926;8.404;2023-05-20T02:06:03;15.00;99.90
16767;DHT22;8501;49.926;8.404;2023-05-20T02:08:28;15.20;99.90
16767;DHT22;8501;49.926;8.404;2023-05-20T02:10:54;15.10;99.90
16767;DHT22;8501;49.926;8.404;2023-05-20T02:13:19;15.00;99.90
16767;DHT22;8501;49.926;8.404;2023-05-20T02:15:45;15.00;99.90
16767;DHT22;8501;49.926;8.404;2023-05-20T02:18:10;15.00;99.90
16767;DHT22;8501;49.926;8.404;2023-05-20T02:20:37;14.90;99.90
16767;DHT22;8501;49.926;8.404;2023-05-20T02:23:03;14.90;99.90
16767;DHT22;8501;49.926;8.404;2023-05-20T02:25:31;14.90;99.90
16767;DHT22;8501;49.926;8.404;2023-05-20T02:27:57;14.90;99.90
16767;DHT22;8501;49.926;8.404;2023-05-20T02:30:23;14.90;99.90
16767;DHT22;8501;49.926;8.404;2023-05-20T02:32:48;14.90;99.90
16767;DHT22;8501;49.926;8.404;2023-05-20T02:35:14;14.90;99.90
16767;DHT22;8501;49.926;8.404;2023-05-20T02:37:40;14.80;99.90
16767;DHT22;8501;49.926;8.404;2023-05-20T02:40:06;14.90;99.90
16767;DHT22;8501;49.926;8.404;2023-05-20T02:42:33;14.80;99.90
16767;DHT22;8501;49.926;8.404;2023-05-20T02:44:59;14.90;99.90
16767;DHT22;8501;49.926;8.404;2023-05-20T02:47:24;14.90;99.90
16767;DHT22;8501;49.926;8.404;2023-05-20T02:49:50;14.80;99.90
16767;DHT22;8501;49.926;8.404;2023-05-20T02:52:16;14.80;99.90
16767;DHT22;8501;49.926;8.404;2023-05-20T02:54:41;14.80;99.90
16767;DHT22;8501;49.926;8.404;2023-05-20T02:57:07;14.80;99.90
16767;DHT22;8501;49.926;8.404;2023-05-20T02:59:32;14.80;99.90
16767;DHT22;8501;49.926;8.404;2023-05-20T03:01:58;14.80;99.90
16767;DHT22;8501;49.926;8.404;2023-05-20T03:04:23;14.90;99.90
16767;DHT22;8501;49.926;8.404;2023-05-20T03:06:50;14.80;99.90
16767;DHT22;8501;49.926;8.404;2023-05-20T03:09:16;14.70;99.90
16767;DHT22;8501;49.926;8.404;2023-05-20T03:11:44;14.70;99.90
16767;DHT22;8501;49.926;8.404;2023-05-20T03:14:09;14.70;99.90
16767;DHT22;8501;49.926;8.404;2023-05-20T03:16:35;14.70;99.90
16767;DHT22;8501;49.926;8.404;2023-05-20T03:19:01;14.70;99.90
16767;DHT22;8501;49.926;8.404;2023-05-20T03:21:26;14.70;99.90
16767;DHT22;8501;49.926;8.404;2023-05-20T03:23:52;14.70;99.90
16767;DHT22;8501;49.926;8.404;2023-05-20T03:26:18;14.70;99.90
16767;DHT22;8501;49.926;8.404;2023-05-20T03:28:43;14.80;99.90
16767;DHT22;8501;49.926;8.404;2023-05-20T03:31:09;14.70;99.90
16767;DHT22;8501;49.926;8.404;2023-05-20T03:33:34;14.70;99.90
16767;DHT22;8501;49.926;8.404;2023-05-20T03:36:00;14.70;99.90
16767;DHT22;8501;49.926;8.404;2023-05-20T03:38:26;14.60;99.90
16767;DHT22;8501;49.926;8.404;2023-05-20T03:40:52;14.70;99.90
16767;DHT22;8501;49.926;8.404;2023-05-20T03:43:18;14.70;99.90
16767;DHT22;8501;49.926;8.404;2023-05-20T03:45:44;14.70;99.90
16767;DHT22;8501;49.926;8.404;2023-05-20T03:48:09;14.70;99.90
16767;DHT22;8501;49.926;8.404;2023-05-20T03:50:35;14.70;99.90
16767;DHT22;8501;49.926;8.404;2023-05-20T03:53:00;14.70;99.90
16767;DHT22;8501;49.926;8.404;2023-05-20T03:55:26;14.70;99.90
16767;DHT22;8501;49.926;8.404;2023-05-20T03:57:52;14.70;99.90
16767;DHT22;8501;49.926;8.404;2023-05-20T04:00:17;14.70;99.90
16767;DHT22;8501;49.926;8.404;2023-05-20T04:02:43;14.70;99.90
16767;DHT22;8501;49.926;8.404;2023-05-20T04:05:09;14.70;99.90
16767;DHT22;8501;49.926;8.404;2023-05-20T04:07:34;14.70;99.90
16767;DHT22;8501;49.926;8.404;2023-05-20T04:10:00;14.70;99.90
16767;DHT22;8501;49.926;8.404;2023-05-20T04:12:26;14.60;99.90
16767;DHT22;8501;49.926;8.404;2023-05-20T04:14:58;14.80;99.90
16767;DHT22;8501;49.926;8.404;2023-05-20T04:17:29;14.70;99.90
16767;DHT22;8501;49.926;8.404;2023-05-20T04:19:55;14.70;99.90
16767;DHT22;8501;49.926;8.404;2023-05-20T04:22:22;14.70;99.90
16767;DHT22;8501;49.926;8.404;2023-05-20T04:24:48;14.60;99.90
16767;DHT22;8501;49.926;8.404;2023-05-20T04:27:14;14.70;99.90
16767;DHT22;8501;49.926;8.404;2023-05-20T04:29:40;14.70;99.90
16767;DHT22;8501;49.926;8.404;2023-05-20T04:32:11;14.70;99.90
16767;DHT22;8501;49.926;8.404;2023-05-20T04:34:37;14.70;99.90
16767;DHT22;8501;49.926;8.404;2023-05-20T04:37:03;14.70;99.90
16767;DHT22;8501;49.926;8.404;2023-05-20T04:39:29;14.80;99.90
16767;DHT22;8501;49.926;8.404;2023-05-20T04:41:54;14.90;99.90
16767;DHT22;8501;49.926;8.404;2023-05-20T04:44:20;14.70;99.90
16767;DHT22;8501;49.926;8.404;2023-05-20T04:46:46;14.70;99.90
16767;DHT22;8501;49.926;8.404;2023-05-20T04:49:13;14.80;99.90
16767;DHT22;8501;49.926;8.404;2023-05-20T04:51:39;14.80;99.90
16767;DHT22;8501;49.926;8.404;2023-05-20T04:54:06;14.80;99.90
16767;DHT22;8501;49.926;8.404;2023-05-20T04:56:32;14.80;99.90
16767;DHT22;8501;49.926;8.404;2023-05-20T04:58:57;14.90;99.90
16767;DHT22;8501;49.926;8.404;2023-05-20T05:01:23;14.90;99.90
16767;DHT22;8501;49.926;8.404;2023-05-20T05:03:49;14.90;99.90
16767;DHT22;8501;49.926;8.404;2023-05-20T05:06:14;15.00;99.90
16767;DHT22;8501;49.926;8.404;2023-05-20T05:08:40;14.90;99.90
16767;DHT22;8501;49.926;8.404;2023-05-20T05:11:05;14.90;99.90
16767;DHT22;8501;49.926;8.404;2023-05-20T05:13:31;14.90;99.90
16767;DHT22;8501;49.926;8.404;2023-05-20T05:15:58;14.90;99.90
16767;DHT22;8501;49.926;8.404;2023-05-20T05:18:24;15.20;99.90
16767;DHT22;8501;49.926;8.404;2023-05-20T05:20:56;15.00;99.90
16767;DHT22;8501;49.926;8.404;2023-05-20T05:23:22;15.10;99.90
16767;DHT22;8501;49.926;8.404;2023-05-20T05:25:50;15.10;99.90
16767;DHT22;8501;49.926;8.404;2023-05-20T05:28:16;15.10;99.90
16767;DHT22;8501;49.926;8.404;2023-05-20T05:30:42;15.10;99.90
16767;DHT22;8501;49.926;8.404;2023-05-20T05:33:07;15.20;99.90
16767;DHT22;8501;49.926;8.404;2023-05-20T05:35:33;15.30;99.90
16767;DHT22;8501;49.926;8.404;2023-05-20T05:37:58;15.30;99.90
16767;DHT22;8501;49.926;8.404;2023-05-20T05:40:24;15.40;99.90
16767;DHT22;8501;49.926;8.404;2023-05-20T05:42:50;15.60;99.90
16767;DHT22;8501;49.926;8.404;2023-05-20T05:45:15;15.60;99.90
16767;DHT22;8501;49.926;8.404;2023-05-20T05:47:41;15.70;99.90
16767;DHT22;8501;49.926;8.404;2023-05-20T05:50:07;15.70;99.90
16767;DHT22;8501;49.926;8.404;2023-05-20T05:52:34;15.70;99.90
16767;DHT22;8501;49.926;8.404;2023-05-20T05:55:00;15.70;99.90
16767;DHT22;8501;49.926;8.404;2023-05-20T05:57:26;15.70;99.90
16767;DHT22;8501;49.926;8.404;2023-05-20T05:59:52;15.70;99.90
16767;DHT22;8501;49.926;8.404;2023-05-20T06:02:17;15.60;99.90
16767;DHT22;8501;49.926;8.404;2023-05-20T06:04:43;15.70;99.90
16767;DHT22;8501;49.926;8.404;2023-05-20T06:07:08;15.70;99.90
16767;DHT22;8501;49.926;8.404;2023-05-20T06:09:34;15.70;99.90
16767;DHT22;8501;49.926;8.404;2023-05-20T06:11:59;15.70;99.90
16767;DHT22;8501;49.926;8.404;2023-05-20T06:14:25;15.80;99.90
16767;DHT22;8501;49.926;8.404;2023-05-20T06:16:50;15.80;99.90
16767;DHT22;8501;49.926;8.404;2023-05-20T06:19:16;15.80;99.90
16767;DHT22;8501;49.926;8.404;2023-05-20T06:21:41;15.90;99.90
16767;DHT22;8501;49.926;8.404;2023-05-20T06:24:07;15.90;99.90
16767;DHT22;8501;49.926;8.404;2023-05-20T06:26:33;16.00;99.90
16767;DHT22;8501;49.926;8.404;2023-05-20T06:28:58;16.00;99.90
16767;DHT22;8501;49.926;8.404;2023-05-20T06:31:24;16.00;99.90
16767;DHT22;8501;49.926;8.404;2023-05-20T06:33:50;16.10;99.90
16767;DHT22;8501;49.926;8.404;2023-05-20T06:36:16;16.10;99.90
16767;DHT22;8501;49.926;8.404;2023-05-20T06:38:42;16.20;99.90
16767;DHT22;8501;49.926;8.404;2023-05-20T06:41:07;16.20;99.90
16767;DHT22;8501;49.926;8.404;2023-05-20T06:43:33;16.20;99.90
16767;DHT22;8501;49.926;8.404;2023-05-20T06:45:58;16.10;99.90
16767;DHT22;8501;49.926;8.404;2023-05-20T06:48:24;16.20;99.90
16767;DHT22;8501;49.926;8.404;2023-05-20T06:50:50;16.10;99.90
16767;DHT22;8501;49.926;8.404;2023-05-20T06:53:15;16.10;99.90
16767;DHT22;8501;49.926;8.404;2023-05-20T06:55:41;16.20;99.90
16767;DHT22;8501;49.926;8.404;2023-05-20T06:58:07;16.20;99.90
16767;DHT22;8501;49.926;8.404;2023-05-20T07:00:32;16.20;99.90
16767;DHT22;8501;49.926;8.404;2023-05-20T07:02:58;16.40;99.90
16767;DHT22;8501;49.926;8.404;2023-05-20T07:05:23;16.30;99.90
16767;DHT22;8501;49.926;8.404;2023-05-20T07:07:49;16.40;99.90
16767;DHT22;8501;49.926;8.404;2023-05-20T07:10:15;16.30;99.90
16767;DHT22;8501;49.926;8.404;2023-05-20T07:12:40;16.30;99.90
16767;DHT22;8501;49.926;8.404;2023-05-20T07:15:07;16.30;99.90
16767;DHT22;8501;49.926;8.404;2023-05-20T07:17:32;16.30;99.90
16767;DHT22;8501;49.926;8.404;2023-05-20T07:19:58;16.40;99.90
16767;DHT22;8501;49.926;8.404;2023-05-20T07:22:23;16.40;99.90
16767;DHT22;8501;49.926;8.404;2023-05-20T07:24:49;16.40;99.90
16767;DHT22;8501;49.926;8.404;2023-05-20T07:27:14;16.40;99.90
16767;DHT22;8501;49.926;8.404;2023-05-20T07:29:40;16.40;99.90
16767;DHT22;8501;49.926;8.404;2023-05-20T07:32:07;16.50;99.90
16767;DHT22;8501;49.926;8.404;2023-05-20T07:34:33;16.60;99.90
16767;DHT22;8501;49.926;8.404;2023-05-20T07:36:59;16.60;99.90
16767;DHT22;8501;49.926;8.404;2023-05-20T07:39:25;16.40;99.90
16767;DHT22;8501;49.926;8.404;2023-05-20T07:41:51;16.60;99.90
16767;DHT22;8501;49.926;8.404;2023-05-20T07:44:16;16.60;99.90
16767;DHT22;8501;49.926;8.404;2023-05-20T07:46:46;16.60;99.90
16767;DHT22;8501;49.926;8.404;2023-05-20T07:49:12;16.70;99.90
16767;DHT22;8501;49.926;8.404;2023-05-20T07:51:38;16.70;99.90
16767;DHT22;8501;49.926;8.404;2023-05-20T07:54:03;16.80;99.90
16767;DHT22;8501;49.926;8.404;2023-05-20T07:56:29;16.80;99.90
16767;DHT22;8501;49.926;8.404;2023-05-20T07:58:57;16.80;99.90
16767;DHT22;8501;49.926;8.404;2023-05-20T08:01:23;16.60;99.90
16767;DHT22;8501;49.926;8.404;2023-05-20T08:03:49;16.80;99.90
16767;DHT22;8501;49.926;8.404;2023-05-20T08:06:15;16.80;99.90
16767;DHT22;8501;49.926;8.404;2023-05-20T08:08:41;16.90;99.90
16767;DHT22;8501;49.926;8.404;2023-05-20T08:11:07;16.90;99.90
16767;DHT22;8501;49.926;8.404;2023-05-20T08:13:33;17.00;99.90
16767;DHT22;8501;49.926;8.404;2023-05-20T08:15:58;17.00;99.90
16767;DHT22;8501;49.926;8.404;2023-05-20T08:18:25;17.10;99.90
16767;DHT22;8501;49.926;8.404;2023-05-20T08:20:51;17.30;99.90
16767;DHT22;8501;49.926;8.404;2023-05-20T08:23:25;17.30;99.90
16767;DHT22;8501;49.926;8.404;2023-05-20T08:25:50;17.40;99.90
16767;DHT22;8501;49.926;8.404;2023-05-20T08:28:16;17.60;99.90
16767;DHT22;8501;49.926;8.404;2023-05-20T08:30:42;17.80;99.90
16767;DHT22;8501;49.926;8.404;2023-05-20T08:33:08;18.00;99.90
16767;DHT22;8501;49.926;8.404;2023-05-20T08:35:33;17.90;99.90
16767;DHT22;8501;49.926;8.404;2023-05-20T08:37:59;18.00;99.90
16767;DHT22;8501;49.926;8.404;2023-05-20T08:40:26;18.00;99.90
16767;DHT22;8501;49.926;8.404;2023-05-20T08:42:51;17.90;99.90
16767;DHT22;8501;49.926;8.404;2023-05-20T08:45:18;17.90;99.90
16767;DHT22;8501;49.926;8.404;2023-05-20T08:47:45;17.90;99.90
16767;DHT22;8501;49.926;8.404;2023-05-20T08:50:12;18.00;99.90
16767;DHT22;8501;49.926;8.404;2023-05-20T08:52:42;18.20;99.90
16767;DHT22;8501;49.926;8.404;2023-05-20T08:55:56;18.20;99.90
16767;DHT22;8501;49.926;8.404;2023-05-20T08:58:02;18.30;99.90
16767;DHT22;8501;49.926;8.404;2023-05-20T09:00:27;18.40;99.90
16767;DHT22;8501;49.926;8.404;2023-05-20T09:02:54;18.40;99.90
16767;DHT22;8501;49.926;8.404;2023-05-20T09:05:20;18.30;99.90
16767;DHT22;8501;49.926;8.404;2023-05-20T09:07:47;18.40;99.90
16767;DHT22;8501;49.926;8.404;2023-05-20T09:10:13;18.50;99.90
16767;DHT22;8501;49.926;8.404;2023-05-20T09:12:39;18.60;99.90
16767;DHT22;8501;49.926;8.404;2023-05-20T09:15:05;18.60;99.90
16767;DHT22;8501;49.926;8.404;2023-05-20T09:17:34;18.60;99.90
16767;DHT22;8501;49.926;8.404;2023-05-20T09:20:00;18.60;99.90
16767;DHT22;8501;49.926;8.404;2023-05-20T09:22:27;18.60;99.90
16767;DHT22;8501;49.926;8.404;2023-05-20T09:24:53;18.70;99.90
16767;DHT22;8501;49.926;8.404;2023-05-20T09:27:20;18.80;99.90
16767;DHT22;8501;49.926;8.404;2023-05-20T09:29:49;18.90;99.90
16767;DHT22;8501;49.926;8.404;2023-05-20T09:32:16;19.10;99.90
16767;DHT22;8501;49.926;8.404;2023-05-20T09:34:42;19.30;99.90
16767;DHT22;8501;49.926;8.404;2023-05-20T09:37:10;19.60;99.90
16767;DHT22;8501;49.926;8.404;2023-05-20T09:39:56;19.50;99.90
16767;DHT22;8501;49.926;8.404;2023-05-20T09:42:26;19.50;99.90
16767;DHT22;8501;49.926;8.404;2023-05-20T09:44:53;19.40;99.90
16767;DHT22;8501;49.926;8.404;2023-05-20T09:47:19;19.20;99.90
16767;DHT22;8501;49.926;8.404;2023-05-20T09:49:45;19.10;99.90
16767;DHT22;8501;49.926;8.404;2023-05-20T09:52:15;19.10;99.90
16767;DHT22;8501;49.926;8.404;2023-05-20T09:54:42;19.10;99.90
16767;DHT22;8501;49.926;8.404;2023-05-20T09:57:09;19.10;99.90
16767;DHT22;8501;49.926;8.404;2023-05-20T09:59:36;19.20;99.90
16767;DHT22;8501;49.926;8.404;2023-05-20T10:02:01;19.20;99.90
16767;DHT22;8501;49.926;8.404;2023-05-20T10:04:28;19.30;99.90
16767;DHT22;8501;49.926;8.404;2023-05-20T10:07:01;19.40;99.90
16767;DHT22;8501;49.926;8.404;2023-05-20T10:17:56;19.90;99.90
16767;DHT22;8501;49.926;8.404;2023-05-20T10:20:25;19.80;99.90
16767;DHT22;8501;49.926;8.404;2023-05-20T10:22:55;19.80;99.90
16767;DHT22;8501;49.926;8.404;2023-05-20T10:25:26;19.70;99.90
16767;DHT22;8501;49.926;8.404;2023-05-20T10:28:04;19.70;99.90
16767;DHT22;8501;49.926;8.404;2023-05-20T10:30:30;19.80;99.90
16767;DHT22;8501;49.926;8.404;2023-05-20T10:32:57;20.00;99.90
16767;DHT22;8501;49.926;8.404;2023-05-20T10:35:26;20.20;99.90
16767;DHT22;8501;49.926;8.404;2023-05-20T10:38:06;20.30;99.90
16767;DHT22;8501;49.926;8.404;2023-05-20T10:40:31;20.40;99.90
16767;DHT22;8501;49.926;8.404;2023-05-20T10:43:08;20.40;99.90
16767;DHT22;8501;49.926;8.404;2023-05-20T10:45:34;20.40;99.90
16767;DHT22;8501;49.926;8.404;2023-05-20T10:48:01;20.40;99.90
16767;DHT22;8501;49.926;8.404;2023-05-20T10:50:36;20.40;99.90
16767;DHT22;8501;49.926;8.404;2023-05-20T10:53:04;20.40;99.90
16767;DHT22;8501;49.926;8.404;2023-05-20T10:55:45;20.50;99.90
16767;DHT22;8501;49.926;8.404;2023-05-20T10:58:13;20.50;99.90
16767;DHT22;8501;49.926;8.404;2023-05-20T11:00:39;20.70;99.90
16767;DHT22;8501;49.926;8.404;2023-05-20T11:03:05;20.80;99.90
16767;DHT22;8501;49.926;8.404;2023-05-20T11:05:31;20.80;99.90
16767;DHT22;8501;49.926;8.404;2023-05-20T11:08:05;21.00;99.90
16767;DHT22;8501;49.926;8.404;2023-05-20T11:10:32;21.10;99.90
16767;DHT22;8501;49.926;8.404;2023-05-20T11:13:00;21.20;99.90
16767;DHT22;8501;49.926;8.404;2023-05-20T11:15:26;21.30;99.90
16767;DHT22;8501;49.926;8.404;2023-05-20T11:17:59;21.30;99.90
16767;DHT22;8501;49.926;8.404;2023-05-20T11:20:25;21.30;99.90
16767;DHT22;8501;49.926;8.404;2023-05-20T11:22:52;21.30;99.90
16767;DHT22;8501;49.926;8.404;2023-05-20T11:25:19;21.30;99.90
16767;DHT22;8501;49.926;8.404;2023-05-20T11:27:45;21.20;99.90
16767;DHT22;8501;49.926;8.404;2023-05-20T11:30:12;21.30;99.90
16767;DHT22;8501;49.926;8.404;2023-05-20T11:32:42;21.50;99.90
16767;DHT22;8501;49.926;8.404;2023-05-20T11:35:18;21.60;99.90
16767;DHT22;8501;49.926;8.404;2023-05-20T11:37:44;21.70;99.90
16767;DHT22;8501;49.926;8.404;2023-05-20T11:40:10;21.80;99.90
16767;DHT22;8501;49.926;8.404;2023-05-20T11:42:37;21.80;99.90
16767;DHT22;8501;49.926;8.404;2023-05-20T11:45:03;21.80;99.90
16767;DHT22;8501;49.926;8.404;2023-05-20T11:47:28;21.80;99.90
16767;DHT22;8501;49.926;8.404;2023-05-20T11:49:57;21.90;99.90
16767;DHT22;8501;49.926;8.404;2023-05-20T11:52:22;21.90;99.90
16767;DHT22;8501;49.926;8.404;2023-05-20T11:54:52;21.80;99.90
16767;DHT22;8501;49.926;8.404;2023-05-20T11:57:18;21.90;99.90
16767;DHT22;8501;49.926;8.404;2023-05-20T11:59:45;21.80;99.90
16767;DHT22;8501;49.926;8.404;2023-05-20T12:02:11;21.70;99.90
16767;DHT22;8501;49.926;8.404;2023-05-20T12:04:37;21.70;99.90
16767;DHT22;8501;49.926;8.404;2023-05-20T12:07:02;21.70;99.90
16767;DHT22;8501;49.926;8.404;2023-05-20T12:09:28;21.70;99.90
16767;DHT22;8501;49.926;8.404;2023-05-20T12:11:54;21.60;99.90
16767;DHT22;8501;49.926;8.404;2023-05-20T12:14:21;21.60;99.90
16767;DHT22;8501;49.926;8.404;2023-05-20T12:16:46;21.60;99.90
16767;DHT22;8501;49.926;8.404;2023-05-20T12:19:12;21.60;99.90
16767;DHT22;8501;49.926;8.404;2023-05-20T12:21:37;21.80;99.90
16767;DHT22;8501;49.926;8.404;2023-05-20T12:24:03;22.00;99.90
16767;DHT22;8501;49.926;8.404;2023-05-20T12:26:31;22.20;99.90
16767;DHT22;8501;49.926;8.404;2023-05-20T12:28:57;22.20;99.90
16767;DHT22;8501;49.926;8.404;2023-05-20T12:31:24;22.10;99.90
16767;DHT22;8501;49.926;8.404;2023-05-20T12:33:49;21.90;99.90
16767;DHT22;8501;49.926;8.404;2023-05-20T12:36:15;21.80;99.90
16767;DHT22;8501;49.926;8.404;2023-05-20T12:38:41;21.90;99.90
16767;DHT22;8501;49.926;8.404;2023-05-20T12:41:06;21.90;99.90
16767;DHT22;8501;49.926;8.404;2023-05-20T12:43:32;22.00;99.90
16767;DHT22;8501;49.926;8.404;2023-05-20T12:45:58;22.10;99.90
16767;DHT22;8501;49.926;8.404;2023-05-20T12:48:24;22.20;99.90
16767;DHT22;8501;49.926;8.404;2023-05-20T12:50:49;22.30;99.90
16767;DHT22;8501;49.926;8.404;2023-05-20T12:53:15;22.20;99.90
16767;DHT22;8501;49.926;8.404;2023-05-20T12:55:40;22.20;99.90
16767;DHT22;8501;49.926;8.404;2023-05-20T12:58:06;22.10;99.90
16767;DHT22;8501;49.926;8.404;2023-05-20T13:00:33;22.00;99.90
16767;DHT22;8501;49.926;8.404;2023-05-20T13:02:59;21.90;99.90
16767;DHT22;8501;49.926;8.404;2023-05-20T13:05:25;21.80;99.90
16767;DHT22;8501;49.926;8.404;2023-05-20T13:07:50;21.90;99.90
16767;DHT22;8501;49.926;8.404;2023-05-20T13:10:16;22.00;99.90
16767;DHT22;8501;49.926;8.404;2023-05-20T13:12:42;22.10;99.90
16767;DHT22;8501;49.926;8.404;2023-05-20T13:15:11;22.20;99.90
16767;DHT22;8501;49.926;8.404;2023-05-20T13:17:37;22.30;99.90
16767;DHT22;8501;49.926;8.404;2023-05-20T13:20:04;22.40;99.90
16767;DHT22;8501;49.926;8.404;2023-05-20T13:22:29;22.50;99.90
16767;DHT22;8501;49.926;8.404;2023-05-20T13:24:55;22.50;99.90
16767;DHT22;8501;49.926;8.404;2023-05-20T13:27:20;22.40;99.90
16767;DHT22;8501;49.926;8.404;2023-05-20T13:29:46;22.30;99.90
16767;DHT22;8501;49.926;8.404;2023-05-20T13:32:11;22.30;99.90
16767;DHT22;8501;49.926;8.404;2023-05-20T13:34:37;22.30;99.90
16767;DHT22;8501;49.926;8.404;2023-05-20T13:37:03;22.20;99.90
16767;DHT22;8501;49.926;8.404;2023-05-20T13:39:29;22.20;99.90
16767;DHT22;8501;49.926;8.404;2023-05-20T13:41:55;22.10;99.90
16767;DHT22;8501;49.926;8.404;2023-05-20T13:44:20;22.20;99.90
16767;DHT22;8501;49.926;8.404;2023-05-20T13:46:46;22.20;99.90
16767;DHT22;8501;49.926;8.404;2023-05-20T13:49:12;22.20;99.90
16767;DHT22;8501;49.926;8.404;2023-05-20T13:51:37;22.30;99.90
16767;DHT22;8501;49.926;8.404;2023-05-20T13:54:03;22.40;99.90
16767;DHT22;8501;49.926;8.404;2023-05-20T13:56:28;22.50;99.90
16767;DHT22;8501;49.926;8.404;2023-05-20T13:58:54;22.60;99.90
16767;DHT22;8501;49.926;8.404;2023-05-20T14:01:19;22.50;99.90
16767;DHT22;8501;49.926;8.404;2023-05-20T14:03:45;22.60;99.90
16767;DHT22;8501;49.926;8.404;2023-05-20T14:06:11;22.80;99.90
16767;DHT22;8501;49.926;8.404;2023-05-20T14:08:39;22.90;99.90
16767;DHT22;8501;49.926;8.404;2023-05-20T14:11:04;23.00;99.90
16767;DHT22;8501;49.926;8.404;2023-05-20T14:13:30;23.00;99.90
16767;DHT22;8501;49.926;8.404;2023-05-20T14:15:55;22.90;99.90
16767;DHT22;8501;49.926;8.404;2023-05-20T14:18:21;23.10;99.90
16767;DHT22;8501;49.926;8.404;2023-05-20T14:20:47;23.20;99.90
16767;DHT22;8501;49.926;8.404;2023-05-20T14:23:13;23.20;99.90
16767;DHT22;8501;49.926;8.404;2023-05-20T14:25:39;23.20;99.90
16767;DHT22;8501;49.926;8.404;2023-05-20T14:28:05;23.30;99.90
16767;DHT22;8501;49.926;8.404;2023-05-20T14:30:31;23.10;99.90
16767;DHT22;8501;49.926;8.404;2023-05-20T14:32:56;23.00;99.90
16767;DHT22;8501;49.926;8.404;2023-05-20T14:35:22;23.10;99.90
16767;DHT22;8501;49.926;8.404;2023-05-20T14:37:47;23.30;99.90
16767;DHT22;8501;49.926;8.404;2023-05-20T14:40:13;23.40;99.90
16767;DHT22;8501;49.926;8.404;2023-05-20T14:42:39;23.60;99.90
16767;DHT22;8501;49.926;8.404;2023-05-20T14:45:05;23.50;99.90
16767;DHT22;8501;49.926;8.404;2023-05-20T14:47:31;23.70;99.90
16767;DHT22;8501;49.926;8.404;2023-05-20T14:49:57;23.70;99.90
16767;DHT22;8501;49.926;8.404;2023-05-20T14:52:22;24.00;99.90
16767;DHT22;8501;49.926;8.404;2023-05-20T14:54:48;24.20;99.90
16767;DHT22;8501;49.926;8.404;2023-05-20T14:57:14;24.20;99.90
16767;DHT22;8501;49.926;8.404;2023-05-20T14:59:40;24.20;99.90
16767;DHT22;8501;49.926;8.404;2023-05-20T15:02:06;24.30;99.90
16767;DHT22;8501;49.926;8.404;2023-05-20T15:04:32;24.40;99.90
16767;DHT22;8501;49.926;8.404;2023-05-20T15:06:58;24.60;99.90
16767;DHT22;8501;49.926;8.404;2023-05-20T15:09:23;24.70;99.90
16767;DHT22;8501;49.926;8.404;2023-05-20T15:11:49;24.90;99.90
16767;DHT22;8501;49.926;8.404;2023-05-20T15:14:15;24.70;99.90
16767;DHT22;8501;49.926;8.404;2023-05-20T15:16:41;24.70;99.90
16767;DHT22;8501;49.926;8.404;2023-05-20T15:19:08;24.80;99.90
16767;DHT22;8501;49.926;8.404;2023-05-20T15:21:35;24.80;99.90
16767;DHT22;8501;49.926;8.404;2023-05-20T15:24:00;24.60;99.90
16767;DHT22;8501;49.926;8.404;2023-05-20T15:26:26;24.20;99.90
16767;DHT22;8501;49.926;8.404;2023-05-20T15:28:52;24.00;99.90
16767;DHT22;8501;49.926;8.404;2023-05-20T15:31:17;23.70;99.90
16767;DHT22;8501;49.926;8.404;2023-05-20T15:33:43;23.50;99.90
16767;DHT22;8501;49.926;8.404;2023-05-20T15:36:08;23.30;99.90
16767;DHT22;8501;49.926;8.404;2023-05-20T15:38:34;23.10;99.90
16767;DHT22;8501;49.926;8.404;2023-05-20T15:41:00;23.20;99.90
16767;DHT22;8501;49.926;8.404;2023-05-20T15:43:25;23.20;99.90
16767;DHT22;8501;49.926;8.404;2023-05-20T15:45:51;23.30;99.90
16767;DHT22;8501;49.926;8.404;2023-05-20T15:48:18;23.20;99.90
16767;DHT22;8501;49.926;8.404;2023-05-20T15:50:46;23.20;99.90